Terminal Aerodrome Forecast
Issued by NWS

Home | Current Version | Previous Version | Text Only | Print | Product List | Glossary On
Versions: 1 2 3 4 5 6 7 8 9 10 11 12 13 14
000
FTUS45 KRIW 310527
TAFWRL
TAF
KWRL 310527Z 3106/0106 33007KT P6SM BKN080
     FM311100 VRB05KT P6SM SCT080
     FM311800 34012G18KT P6SM SCT080
     FM010200 33006KT P6SM FEW080
     FM010500 VRB05KT P6SM SKC=

USA.gov is the U.S. government's official web portal to all federal, state and local government web resources and services.